Bookmark and Share
Track history (hours):
 

CMA CGM Turquoise

Last reported at 2014-Apr-23 23:31 UTC. Time now 2014-Apr-24 00:05 UTC.
Position S 04°47' E 011°50'.

Length 258 m; draft 9.5 m.

Type: Ship (hazmat cat A). MMSI: 636014059.

NotesDate/timePositionNaut miles runAvg speedWind from/ knotsBaromVisibWave heightAir tempDewpointWater temp
2014-Apr-23 23:31S 04°47' E 011°50'0 0.0
2014-Apr-23 22:28S 04°47' E 011°50'0 0.0
2014-Apr-23 21:31S 04°47' E 011°50'0 0.0
2014-Apr-23 20:33S 04°47' E 011°50'0 0.4
2014-Apr-23 19:33S 04°46' E 011°50'2 2.0
2014-Apr-23 18:32S 04°46' E 011°48'0 0.0
2014-Apr-23 17:31S 04°46' E 011°48'0 0.0
2014-Apr-23 16:31S 04°46' E 011°48'0 0.0
2014-Apr-23 15:25S 04°46' E 011°48'0 0.0
2014-Apr-23 14:30S 04°46' E 011°48'0 0.0
2014-Apr-23 13:33S 04°46' E 011°48'0 0.0
2014-Apr-23 12:32S 04°46' E 011°48'0 0.0
2014-Apr-23 11:29S 04°46' E 011°48'0 0.0
2014-Apr-23 10:28S 04°46' E 011°48'0 0.0
2014-Apr-23 09:28S 04°46' E 011°48'1 1.2
2014-Apr-23 08:33S 04°46' E 011°47'10 9.9
2014-Apr-23 07:33S 04°50' E 011°38'1510.6
2014-Apr-23 06:08S 04°57' E 011°25'  
2014-Apr-17 04:22S 34°15' E 017°57'1012.3
2014-Apr-17 03:32S 34°22' E 018°05'1313.3
2014-Apr-17 02:32S 34°28' E 018°20'1212.6
2014-Apr-17 01:33S 34°33' E 018°33'1212.3
2014-Apr-17 00:33S 34°40' E 018°46'1313.0
2014-Apr-16 23:33S 34°45' E 019°00'7412.3
2014-Apr-16 17:29S 35°00' E 020°29'1612.5
2014-Apr-16 16:14S 34°57' E 020°48'5212.8
2014-Apr-16 12:12S 34°49' E 021°50'1516.0
2014-Apr-16 11:16S 34°47' E 022°08'1216.0
2014-Apr-16 10:32S 34°45' E 022°22'10514.9
2014-Apr-16 03:27S 34°32' E 024°29'1614.5
2014-Apr-16 02:21S 34°30' E 024°48'1214.5
2014-Apr-16 01:29S 34°28' E 025°03'1414.3
2014-Apr-16 00:29S 34°25' E 025°20'1614.1
2014-Apr-15 23:22S 34°23' E 025°39'36214.6
2014-Apr-14 22:33S 30°18' E 030°54'1313.0
2014-Apr-14 21:33S 30°07' E 031°02'1514.9
2014-Apr-14 20:34S 29°53' E 031°08'6 0.6
2014-Apr-14 10:32S 29°53' E 031°01'0 0.0
2014-Apr-14 06:33S 29°53' E 031°01'2 2.1
2014-Apr-14 05:32S 29°52' E 031°04'  

Dump ship's entire track history

sailing weather and tide predictions

CMA CGM Turquoise — A8RB5 — position and weather